Terminal Aerodrome Forecast
Issued by NWS Denver/Boulder, CO

Home | Current Version | Previous Version | Text Only | Print | Product List | Glossary On
Versions: 1 2 3 4 5 6 7 8 9 10 11 12 13 14 15 16 17 18 19 20 21 22 23 24 25 26 27 28 29 30 31 32 33 34 35 36 37 38 39 40 41 42 43 44 45 46 47 48 49 50
000
FTUS45 KBOU 022210 AAD
TAFDEN
TAF AMD
KDEN 022210Z 0222/0324 07010KT P6SM FEW110 SCT220
     FM030000 03008KT P6SM SCT110 SCT220
     FM030200 VRB05KT P6SM FEW110 SCT220
     FM030500 21010KT P6SM SCT200
     FM031400 36009KT P6SM SCT110 SCT220
     FM031600 03011KT P6SM FEW060 SCT110
     FM031900 05012KT P6SM VCSH SCT060 BKN100 PROB30 0320/0324
      VRB20G35KT 5SM TSRAGS BKN050CB=

USA.gov is the U.S. government's official web portal to all federal, state and local government web resources and services.